createdAt,value
2018-11-10T00:00:52.585Z,96.90
2018-11-10T00:02:56.414Z,96.90
2018-11-10T00:05:00.204Z,96.70
2018-11-10T00:07:05.165Z,96.70
2018-11-10T00:09:09.097Z,96.60
2018-11-10T00:11:12.888Z,96.80
2018-11-10T00:13:16.640Z,97.00
2018-11-10T00:15:20.376Z,96.70
2018-11-10T00:17:30.859Z,96.60
2018-11-10T00:19:34.634Z,96.50
2018-11-10T00:21:38.397Z,96.30
2018-11-10T00:23:42.355Z,96.20
2018-11-10T00:25:46.196Z,96.20
2018-11-10T00:27:49.954Z,96.30
2018-11-10T00:29:53.862Z,96.70
2018-11-10T00:31:57.708Z,96.70
2018-11-10T00:34:01.532Z,96.70
2018-11-10T00:36:05.608Z,96.70
2018-11-10T00:38:09.570Z,97.30
2018-11-10T00:40:14.674Z,97.00
2018-11-10T00:42:18.497Z,96.20
2018-11-10T00:44:22.300Z,96.10
2018-11-10T00:46:26.158Z,95.80
2018-11-10T00:48:29.870Z,95.60
2018-11-10T00:50:33.669Z,95.60
2018-11-10T00:52:37.892Z,95.40
2018-11-10T00:54:41.905Z,95.00
2018-11-10T00:56:45.810Z,95.00
2018-11-10T00:58:49.613Z,95.30
2018-11-10T01:00:53.404Z,95.30
2018-11-10T01:02:57.196Z,95.50
2018-11-10T01:05:00.939Z,95.50
2018-11-10T01:07:05.321Z,95.70
2018-11-10T01:09:09.645Z,96.00
2018-11-10T01:11:13.412Z,96.20
2018-11-10T01:13:17.190Z,96.20
2018-11-10T01:15:20.988Z,96.30
2018-11-10T01:17:24.827Z,96.50
2018-11-10T01:19:34.910Z,96.20
2018-11-10T01:21:38.800Z,96.00
2018-11-10T01:23:42.562Z,95.70
2018-11-10T01:25:46.638Z,95.70
2018-11-10T01:27:50.437Z,95.40
2018-11-10T01:29:54.211Z,95.30
2018-11-10T01:31:58.086Z,95.30
2018-11-10T01:34:01.888Z,95.00
2018-11-10T01:36:06.093Z,94.80
2018-11-10T01:38:09.825Z,94.10
2018-11-10T01:40:14.593Z,93.90
2018-11-10T01:42:18.453Z,92.70
2018-11-10T01:44:22.307Z,91.70
2018-11-10T01:46:26.047Z,91.50
2018-11-10T01:48:29.849Z,90.70
2018-11-10T01:50:33.593Z,90.30
2018-11-10T01:52:37.443Z,89.00
2018-11-10T01:54:41.303Z,88.70
2018-11-10T01:56:45.133Z,88.40
2018-11-10T01:58:48.978Z,85.40
2018-11-10T02:00:52.797Z,84.40
2018-11-10T02:02:56.566Z,83.90
2018-11-10T02:05:00.346Z,84.40
2018-11-10T02:07:04.269Z,83.90
2018-11-10T02:09:09.208Z,82.90
2018-11-10T02:11:12.999Z,83.30
2018-11-10T02:13:16.833Z,80.50
2018-11-10T02:15:20.623Z,80.50
2018-11-10T02:17:24.417Z,80.90
2018-11-10T02:19:28.219Z,80.30
2018-11-10T02:21:31.962Z,80.40
2018-11-10T02:23:35.711Z,79.50
2018-11-10T02:25:39.545Z,79.70
2018-11-10T02:27:43.387Z,79.70
2018-11-10T02:29:47.529Z,80.50
2018-11-10T02:31:51.406Z,80.50
2018-11-10T02:33:55.252Z,81.30
2018-11-10T02:35:59.005Z,80.60
2018-11-10T02:38:02.750Z,81.40
2018-11-10T02:40:08.332Z,81.80
2018-11-10T02:42:12.173Z,82.30
2018-11-10T02:44:15.959Z,82.80
2018-11-10T02:46:19.669Z,85.40
2018-11-10T02:49:54.219Z,84.80
2018-11-10T02:51:59.014Z,85.30
2018-11-10T02:54:02.778Z,87.00
2018-11-10T02:56:06.562Z,86.60
2018-11-10T02:58:10.393Z,84.60
2018-11-10T03:00:15.154Z,83.20
2018-11-10T03:02:18.941Z,81.80
2018-11-10T03:04:22.916Z,80.40
2018-11-10T03:06:26.656Z,79.70
2018-11-10T03:08:30.487Z,79.10
2018-11-10T03:10:34.314Z,78.40
2018-11-10T03:12:38.744Z,77.80
2018-11-10T03:14:42.636Z,77.40
2018-11-10T03:16:46.440Z,77.50
2018-11-10T03:18:50.183Z,76.80
2018-11-10T03:20:53.957Z,77.00
2018-11-10T03:22:57.748Z,76.10
2018-11-10T03:25:01.528Z,75.60
2018-11-10T03:27:05.511Z,74.30
2018-11-10T03:29:09.265Z,75.30
2018-11-10T03:31:13.011Z,73.80
2018-11-10T03:33:16.773Z,74.00
2018-11-10T03:35:20.556Z,73.90
2018-11-10T03:37:24.246Z,74.70
2018-11-10T03:39:28.036Z,74.10
2018-11-10T03:41:31.847Z,73.40
2018-11-10T03:43:35.605Z,72.30
2018-11-10T03:45:39.420Z,71.20
2018-11-10T03:47:43.237Z,70.80
2018-11-10T03:49:47.017Z,70.70
2018-11-10T03:51:50.810Z,69.90
2018-11-10T03:53:54.680Z,68.90
2018-11-10T03:55:58.408Z,69.10
2018-11-10T03:58:02.205Z,68.50
2018-11-10T04:00:07.305Z,68.10
2018-11-10T04:02:11.064Z,67.80
2018-11-10T04:04:14.984Z,67.80
2018-11-10T04:06:18.820Z,67.60
2018-11-10T04:08:22.766Z,66.50
2018-11-10T04:10:26.539Z,65.20
2018-11-10T04:12:30.285Z,65.40
2018-11-10T04:14:34.118Z,63.80
2018-11-10T04:16:37.896Z,63.20
2018-11-10T04:18:41.784Z,62.10
2018-11-10T04:20:45.611Z,62.50
2018-11-10T04:22:49.390Z,62.20
2018-11-10T04:24:53.629Z,61.90
2018-11-10T04:26:57.472Z,61.30
2018-11-10T04:29:01.198Z,60.50
2018-11-10T04:31:05.149Z,60.60
2018-11-10T04:33:08.962Z,60.90
2018-11-10T04:35:12.784Z,60.10
2018-11-10T04:37:16.582Z,60.30
2018-11-10T04:39:20.350Z,60.00
2018-11-10T04:41:24.496Z,59.60
2018-11-10T04:43:28.281Z,59.10
2018-11-10T04:45:32.098Z,58.90
2018-11-10T04:47:35.875Z,58.20
2018-11-10T04:49:40.104Z,57.30
2018-11-10T04:51:43.885Z,57.50
2018-11-10T04:53:47.638Z,57.20
2018-11-10T04:55:51.449Z,57.20
2018-11-10T04:57:55.147Z,57.60
2018-11-10T04:59:58.912Z,58.10
2018-11-10T05:02:02.681Z,57.20
2018-11-10T05:04:07.002Z,58.40
2018-11-10T05:06:10.835Z,58.10
2018-11-10T05:08:14.632Z,58.70
2018-11-10T05:10:18.424Z,58.50
2018-11-10T05:12:22.188Z,57.90
2018-11-10T05:14:32.798Z,58.60
2018-11-10T05:16:36.556Z,57.90
2018-11-10T05:18:40.284Z,58.70
2018-11-10T05:20:44.071Z,58.30
2018-11-10T05:22:47.876Z,58.20
2018-11-10T05:24:51.728Z,58.90
2018-11-10T05:26:55.504Z,57.50
2018-11-10T05:28:59.333Z,57.40
2018-11-10T05:31:03.190Z,57.90
2018-11-10T05:33:06.912Z,59.30
2018-11-10T05:35:10.740Z,58.50
2018-11-10T05:37:14.486Z,58.60
2018-11-10T05:39:18.354Z,58.20
2018-11-10T05:41:22.149Z,58.40
2018-11-10T05:43:25.879Z,58.60
2018-11-10T05:45:29.744Z,60.20
2018-11-10T05:47:33.504Z,58.30
2018-11-10T05:49:37.332Z,58.30
2018-11-10T05:51:41.136Z,58.20
2018-11-10T05:53:44.984Z,58.00
2018-11-10T05:55:48.745Z,57.30
2018-11-10T05:57:52.432Z,57.40
2018-11-10T05:59:56.185Z,57.20
2018-11-10T06:02:00.007Z,57.30
2018-11-10T06:04:03.821Z,57.70
2018-11-10T06:06:08.099Z,57.60
2018-11-10T06:08:11.914Z,57.60
2018-11-10T06:10:15.836Z,57.80
2018-11-10T06:12:19.568Z,57.50
2018-11-10T06:14:23.385Z,57.40
2018-11-10T06:16:27.185Z,56.90
2018-11-10T06:18:31.047Z,57.10
2018-11-10T06:20:34.812Z,57.70
2018-11-10T06:22:38.699Z,57.70
2018-11-10T06:24:42.462Z,57.60
2018-11-10T06:26:46.298Z,57.30
2018-11-10T06:28:50.186Z,56.50
2018-11-10T06:30:54.106Z,56.20
2018-11-10T06:32:57.867Z,56.10
2018-11-10T06:35:01.636Z,56.90
2018-11-10T06:37:05.583Z,57.10
2018-11-10T06:39:11.046Z,57.90
2018-11-10T06:41:14.967Z,57.50
2018-11-10T06:43:18.835Z,57.20
2018-11-10T06:45:22.686Z,58.20
2018-11-10T06:47:26.654Z,57.90
2018-11-10T06:49:30.523Z,58.00
2018-11-10T06:51:34.754Z,58.00
2018-11-10T06:53:38.764Z,58.30
2018-11-10T06:55:42.636Z,59.40
2018-11-10T06:57:46.578Z,59.10
2018-11-10T06:59:50.512Z,59.20
2018-11-10T07:01:54.386Z,59.10
2018-11-10T07:03:58.222Z,58.90
2018-11-10T07:06:02.153Z,58.80
2018-11-10T07:08:06.451Z,58.70
2018-11-10T07:10:11.316Z,58.20
2018-11-10T07:12:15.188Z,57.80
2018-11-10T07:14:19.026Z,57.60
2018-11-10T07:16:22.859Z,57.80
2018-11-10T07:18:26.700Z,57.20
2018-11-10T07:20:30.549Z,57.00
2018-11-10T07:22:34.340Z,57.20
2018-11-10T07:24:38.176Z,57.20
2018-11-10T07:26:41.963Z,57.20
2018-11-10T07:28:45.775Z,57.30
2018-11-10T07:30:49.536Z,57.00
2018-11-10T07:32:53.439Z,57.70
2018-11-10T07:34:57.245Z,58.40
2018-11-10T07:37:01.212Z,58.90
2018-11-10T07:39:06.940Z,59.90
2018-11-10T07:41:10.862Z,60.00
2018-11-10T07:43:14.828Z,61.40
2018-11-10T07:45:18.576Z,61.30
2018-11-10T07:47:22.484Z,61.90
2018-11-10T07:49:26.393Z,62.60
2018-11-10T07:51:30.252Z,63.50
2018-11-10T07:53:34.073Z,64.20
2018-11-10T07:55:37.984Z,64.00
2018-11-10T07:57:41.828Z,63.30
2018-11-10T07:59:45.563Z,64.40
2018-11-10T08:01:52.400Z,64.30
2018-11-10T08:03:56.363Z,63.80
2018-11-10T08:06:00.318Z,65.20
2018-11-10T08:08:04.191Z,64.70
2018-11-10T08:10:08.294Z,65.40
2018-11-10T08:12:12.155Z,64.40
2018-11-10T08:14:16.012Z,64.50
2018-11-10T08:16:19.846Z,65.40
2018-11-10T08:18:23.795Z,64.50
2018-11-10T08:20:29.468Z,63.80
2018-11-10T08:22:33.607Z,63.90
2018-11-10T08:24:37.333Z,63.60
2018-11-10T08:26:41.289Z,63.30
2018-11-10T08:28:45.087Z,64.00
2018-11-10T08:30:48.990Z,63.60
2018-11-10T08:32:52.791Z,62.90
2018-11-10T08:34:56.562Z,63.00
2018-11-10T08:37:00.356Z,63.70
2018-11-10T08:39:07.118Z,62.00
2018-11-10T08:41:10.928Z,61.30
2018-11-10T08:43:14.717Z,62.50
2018-11-10T08:45:18.507Z,62.30
2018-11-10T08:47:22.404Z,64.50
2018-11-10T08:49:26.152Z,64.40
2018-11-10T08:51:29.935Z,64.40
2018-11-10T08:53:34.858Z,65.20
2018-11-10T08:55:38.742Z,63.10
2018-11-10T08:57:43.169Z,65.20
2018-11-10T08:59:46.950Z,65.10
2018-11-10T09:01:50.859Z,65.30
2018-11-10T09:03:54.699Z,65.90
2018-11-10T09:05:58.587Z,67.40
2018-11-10T09:08:02.444Z,64.50
2018-11-10T09:10:07.588Z,64.80
2018-11-10T09:12:11.457Z,66.50
2018-11-10T09:14:15.271Z,69.30
2018-11-10T09:16:19.103Z,66.60
2018-11-10T09:18:23.949Z,66.90
2018-11-10T09:20:28.124Z,64.10
2018-11-10T09:22:31.963Z,64.50
2018-11-10T09:24:36.065Z,64.30
2018-11-10T09:26:39.976Z,65.50
2018-11-10T09:28:43.880Z,66.30
2018-11-10T09:30:47.720Z,65.20
2018-11-10T09:32:51.493Z,67.40
2018-11-10T09:34:55.300Z,64.50
2018-11-10T09:36:59.180Z,63.90
2018-11-10T09:39:03.048Z,65.40
2018-11-10T09:41:06.835Z,63.70
2018-11-10T09:43:10.803Z,63.30
2018-11-10T09:45:15.835Z,64.70
2018-11-10T09:47:19.739Z,65.50
2018-11-10T09:49:23.600Z,65.30
2018-11-10T09:51:27.438Z,66.80
2018-11-10T09:53:31.279Z,65.10
2018-11-10T09:55:35.022Z,66.40
2018-11-10T09:57:39.025Z,65.90
2018-11-10T09:59:42.849Z,63.50
2018-11-10T10:01:46.926Z,60.80
2018-11-10T10:03:50.500Z,61.10
2018-11-10T10:05:54.331Z,61.10
2018-11-10T10:07:58.175Z,61.80
2018-11-10T10:10:01.965Z,59.50
2018-11-10T10:12:05.997Z,60.10
2018-11-10T10:14:10.645Z,59.80
2018-11-10T10:16:15.085Z,59.70
2018-11-10T10:18:18.807Z,60.60
2018-11-10T10:20:22.638Z,61.70
2018-11-10T10:22:26.433Z,61.70
2018-11-10T10:24:30.267Z,62.80
2018-11-10T10:26:34.148Z,62.00
2018-11-10T10:28:38.947Z,60.10
2018-11-10T10:30:42.773Z,61.30
2018-11-10T10:32:47.585Z,61.60
2018-11-10T10:34:51.419Z,62.60
2018-11-10T10:36:55.243Z,63.70
2018-11-10T10:38:59.122Z,66.40
2018-11-10T10:41:02.971Z,67.20
2018-11-10T10:43:06.906Z,70.30
2018-11-10T10:45:13.067Z,70.20
2018-11-10T10:47:16.833Z,69.90
2018-11-10T10:49:22.806Z,70.30
2018-11-10T10:51:26.884Z,69.60
2018-11-10T10:53:31.018Z,70.60
2018-11-10T10:55:35.004Z,71.60
2018-11-10T10:57:38.876Z,73.20
2018-11-10T10:59:42.644Z,72.90
2018-11-10T11:01:51.701Z,75.10
2018-11-10T11:04:00.965Z,75.80
2018-11-10T11:06:04.903Z,76.60
2018-11-10T11:08:08.730Z,78.20
2018-11-10T11:10:12.502Z,78.70
2018-11-10T11:12:16.372Z,79.50
2018-11-10T11:14:20.235Z,78.90
2018-11-10T11:16:24.006Z,80.00
2018-11-10T11:18:27.967Z,77.50
2018-11-10T11:20:31.768Z,77.30
2018-11-10T11:22:35.594Z,75.50
2018-11-10T11:24:39.469Z,75.10
2018-11-10T11:26:43.223Z,72.90
2018-11-10T11:28:47.056Z,68.60
2018-11-10T11:30:50.897Z,61.70
2018-11-10T11:32:54.714Z,60.80
2018-11-10T11:34:58.526Z,58.40
2018-11-10T11:37:02.356Z,57.60
2018-11-10T11:39:09.539Z,59.60
2018-11-10T11:41:13.389Z,60.40
2018-11-10T11:43:17.176Z,58.50
2018-11-10T11:45:21.047Z,55.70
2018-11-10T11:47:24.932Z,57.70
2018-11-10T11:49:28.793Z,56.60
2018-11-10T11:51:32.592Z,56.60
2018-11-10T11:53:36.359Z,57.00
2018-11-10T11:55:40.171Z,56.20
2018-11-10T11:57:43.997Z,56.80
2018-11-10T11:59:47.890Z,57.00
2018-11-10T12:01:51.733Z,56.70
2018-11-10T12:03:56.110Z,56.40
2018-11-10T12:05:59.867Z,56.70
2018-11-10T12:08:03.609Z,56.80
2018-11-10T12:10:08.921Z,58.40
2018-11-10T12:12:12.699Z,57.80
2018-11-10T12:14:16.584Z,54.90
2018-11-10T12:16:27.197Z,56.70
2018-11-10T12:18:24.161Z,57.20
2018-11-10T12:20:28.023Z,58.10
2018-11-10T12:22:31.817Z,56.70
2018-11-10T12:24:35.821Z,56.20
2018-11-10T12:26:39.594Z,58.10
2018-11-10T12:28:43.456Z,57.80
2018-11-10T12:30:47.331Z,57.10
2018-11-10T12:32:51.263Z,57.60
2018-11-10T12:34:55.253Z,57.80
2018-11-10T12:36:59.100Z,58.10
2018-11-10T12:39:03.002Z,58.40
2018-11-10T12:41:06.928Z,57.50
2018-11-10T12:43:10.760Z,56.70
2018-11-10T12:45:14.920Z,57.90
2018-11-10T12:47:18.815Z,57.00
2018-11-10T12:49:22.862Z,56.00
2018-11-10T12:51:26.739Z,58.30
2018-11-10T12:53:30.636Z,59.50
2018-11-10T12:55:34.547Z,60.00
2018-11-10T12:57:38.559Z,62.00
2018-11-10T12:59:42.695Z,64.10
2018-11-10T13:01:47.381Z,65.10
2018-11-10T13:03:51.297Z,69.00
2018-11-10T13:05:55.136Z,69.90
2018-11-10T13:07:59.087Z,71.70
2018-11-10T13:10:02.963Z,74.30
2018-11-10T13:12:06.887Z,75.50
2018-11-10T13:14:11.435Z,75.70
2018-11-10T13:16:15.374Z,78.30
2018-11-10T13:18:19.148Z,79.50
2018-11-10T13:20:22.954Z,82.60
2018-11-10T13:22:26.828Z,82.50
2018-11-10T13:24:30.735Z,86.40
2018-11-10T13:26:34.619Z,86.90
2018-11-10T13:28:38.491Z,87.50
2018-11-10T13:30:42.402Z,89.70
2018-11-10T13:32:46.304Z,91.00
2018-11-10T13:34:50.258Z,91.40
2018-11-10T13:36:54.117Z,91.60
2018-11-10T13:38:58.004Z,92.00
2018-11-10T13:41:01.954Z,93.20
2018-11-10T13:43:06.085Z,93.90
2018-11-10T13:45:11.606Z,94.50
2018-11-10T13:47:15.602Z,94.30
2018-11-10T13:49:19.486Z,94.20
2018-11-10T13:51:23.566Z,95.00
2018-11-10T13:53:27.410Z,96.00
2018-11-10T13:55:31.248Z,96.30
2018-11-10T13:57:35.150Z,97.00
2018-11-10T13:59:39.054Z,97.70
2018-11-10T14:01:43.325Z,98.00
2018-11-10T14:03:47.140Z,97.70
2018-11-10T14:05:51.026Z,98.10
2018-11-10T14:07:54.846Z,98.50
2018-11-10T14:09:59.144Z,98.90
2018-11-10T14:12:03.531Z,99.40
2018-11-10T14:14:08.831Z,99.70
2018-11-10T14:16:14.796Z,99.50
2018-11-10T14:18:18.776Z,99.90
2018-11-10T14:20:23.540Z,99.90
2018-11-10T14:22:27.605Z,99.90
2018-11-10T14:24:31.697Z,99.90
2018-11-10T14:26:35.546Z,99.90
2018-11-10T14:28:39.408Z,99.90
2018-11-10T14:30:43.274Z,99.90
2018-11-10T14:32:47.574Z,99.90
2018-11-10T14:34:51.324Z,99.90
2018-11-10T14:36:56.020Z,99.90
2018-11-10T14:38:59.935Z,99.90
2018-11-10T14:41:03.794Z,99.90
2018-11-10T14:43:07.774Z,99.90
2018-11-10T14:45:17.690Z,99.90
2018-11-10T14:47:21.663Z,99.90
2018-11-10T14:49:25.714Z,99.90
2018-11-10T14:51:29.615Z,99.90
2018-11-10T14:53:33.760Z,99.90
2018-11-10T14:55:37.618Z,99.90
2018-11-10T14:57:41.879Z,99.90
2018-11-10T14:59:45.763Z,99.90
2018-11-10T15:01:49.663Z,99.90
2018-11-10T15:03:53.488Z,99.90
2018-11-10T15:05:57.317Z,99.90
2018-11-10T15:08:01.236Z,99.90
2018-11-10T15:10:06.917Z,99.90
2018-11-10T15:12:10.932Z,99.90
2018-11-10T15:14:14.854Z,99.90
2018-11-10T15:16:18.738Z,99.90
2018-11-10T15:18:22.828Z,99.90
2018-11-10T15:20:27.721Z,99.90
2018-11-10T15:22:31.671Z,99.90
2018-11-10T15:24:35.560Z,99.90
2018-11-10T15:26:39.440Z,99.90
2018-11-10T15:28:43.323Z,99.90
2018-11-10T15:30:47.192Z,99.90
2018-11-10T15:32:51.432Z,99.90
2018-11-10T15:34:55.314Z,99.90
2018-11-10T15:36:59.217Z,99.90
2018-11-10T15:39:03.325Z,99.90
2018-11-10T15:41:07.265Z,99.90
2018-11-10T15:43:11.148Z,99.90
2018-11-10T15:45:16.008Z,99.90
2018-11-10T15:47:20.189Z,99.90
2018-11-10T15:49:23.964Z,99.90
2018-11-10T15:51:28.234Z,99.90
2018-11-10T15:53:32.301Z,99.90
2018-11-10T15:55:36.296Z,99.90
2018-11-10T15:57:40.831Z,99.90
2018-11-10T15:59:44.909Z,99.90
2018-11-10T16:01:49.150Z,99.90
2018-11-10T16:03:53.274Z,99.90
2018-11-10T16:05:57.201Z,99.90
2018-11-10T16:08:01.373Z,99.90
2018-11-10T16:10:05.632Z,99.90
2018-11-10T16:12:10.272Z,99.90
2018-11-10T16:14:15.574Z,99.90
2018-11-10T16:16:19.817Z,99.90
2018-11-10T16:18:24.532Z,99.90
2018-11-10T16:20:28.903Z,99.90
2018-11-10T16:22:32.751Z,99.90
2018-11-10T16:24:36.827Z,99.90
2018-11-10T16:26:40.867Z,99.90
2018-11-10T16:28:45.092Z,99.90
2018-11-10T16:30:49.027Z,99.90
2018-11-10T16:32:52.896Z,99.90
2018-11-10T16:34:56.898Z,99.90
2018-11-10T16:37:00.916Z,99.90
2018-11-10T16:39:06.065Z,99.90
2018-11-10T16:41:09.880Z,99.90
2018-11-10T16:43:13.767Z,99.90
2018-11-10T16:45:18.550Z,99.90
2018-11-10T16:47:22.381Z,99.90
2018-11-10T16:49:26.358Z,99.90
2018-11-10T16:51:30.269Z,99.90
2018-11-10T16:53:34.292Z,99.90
2018-11-10T16:55:38.869Z,99.90
2018-11-10T16:57:42.668Z,99.90
2018-11-10T16:59:46.517Z,99.90
2018-11-10T17:01:50.414Z,99.90
2018-11-10T17:03:54.317Z,99.90
2018-11-10T17:05:58.147Z,99.90
2018-11-10T17:08:02.050Z,99.90
2018-11-10T17:10:07.836Z,99.90
2018-11-10T17:12:11.604Z,99.90
2018-11-10T17:14:15.546Z,99.90
2018-11-10T17:16:19.435Z,99.90
2018-11-10T17:18:23.265Z,99.90
2018-11-10T17:20:27.090Z,99.90
2018-11-10T17:22:30.952Z,99.90
2018-11-10T17:24:34.876Z,99.90
2018-11-10T17:26:38.698Z,99.90
2018-11-10T17:28:42.587Z,99.90
2018-11-10T17:30:46.399Z,99.90
2018-11-10T17:32:50.227Z,99.90
2018-11-10T17:34:54.061Z,99.90
2018-11-10T17:36:57.943Z,99.90
2018-11-10T17:39:01.888Z,99.90
2018-11-10T17:41:05.748Z,99.90
2018-11-10T17:43:09.647Z,99.90
2018-11-10T17:45:14.854Z,99.90
2018-11-10T17:47:18.722Z,99.90
2018-11-10T17:49:22.674Z,99.90
2018-11-10T17:51:26.941Z,99.90
2018-11-10T17:53:30.911Z,99.90
2018-11-10T17:55:34.724Z,99.90
2018-11-10T17:57:38.547Z,99.90
2018-11-10T17:59:42.390Z,99.90
2018-11-10T18:01:46.321Z,99.90
2018-11-10T18:03:50.165Z,99.90
2018-11-10T18:05:54.034Z,99.90
2018-11-10T18:07:58.329Z,99.90
2018-11-10T18:10:02.290Z,99.90
2018-11-10T18:12:06.923Z,99.90
2018-11-10T18:14:10.917Z,99.90
2018-11-10T18:16:14.737Z,99.90
2018-11-10T18:18:18.511Z,99.90
2018-11-10T18:20:22.375Z,99.90
2018-11-10T18:22:26.462Z,99.90
2018-11-10T18:24:30.661Z,99.90
2018-11-10T18:26:34.542Z,99.90
2018-11-10T18:28:38.485Z,99.90
2018-11-10T18:30:42.429Z,99.90
2018-11-10T18:32:46.637Z,99.90
2018-11-10T18:34:50.368Z,99.90
2018-11-10T18:36:54.365Z,99.90
2018-11-10T18:38:58.300Z,99.90
2018-11-10T18:41:02.182Z,99.90
2018-11-10T18:43:06.611Z,99.90
2018-11-10T18:45:11.354Z,99.90
2018-11-10T18:47:15.485Z,99.90
2018-11-10T18:49:19.422Z,99.90
2018-11-10T18:51:23.523Z,99.90
2018-11-10T18:53:27.559Z,99.90
2018-11-10T18:55:31.482Z,99.90
2018-11-10T18:57:35.480Z,99.90
2018-11-10T18:59:39.337Z,99.90
2018-11-10T19:01:43.214Z,99.90
2018-11-10T19:03:47.284Z,99.90
2018-11-10T19:05:51.196Z,99.90
2018-11-10T19:07:55.256Z,99.90
2018-11-10T19:09:59.136Z,99.90
2018-11-10T19:12:03.134Z,99.90
2018-11-10T19:14:07.151Z,99.90
2018-11-10T19:16:10.999Z,99.90
2018-11-10T19:18:14.867Z,99.90
2018-11-10T19:20:19.049Z,99.90
2018-11-10T19:22:23.319Z,99.90
2018-11-10T19:24:27.318Z,99.90
2018-11-10T19:26:31.223Z,99.90
2018-11-10T19:28:35.242Z,99.90
2018-11-10T19:30:39.180Z,99.90
2018-11-10T19:32:43.462Z,99.90
2018-11-10T19:34:47.354Z,99.90
2018-11-10T19:36:51.307Z,99.90
2018-11-10T19:38:55.179Z,99.90
2018-11-10T19:40:59.213Z,99.90
2018-11-10T19:43:03.093Z,99.90
2018-11-10T19:45:08.017Z,99.90
2018-11-10T19:47:11.861Z,99.90
2018-11-10T19:49:16.110Z,99.90
2018-11-10T19:51:20.236Z,99.90
2018-11-10T19:53:24.129Z,99.90
2018-11-10T19:55:28.062Z,99.90
2018-11-10T19:57:32.084Z,99.90
2018-11-10T19:59:35.998Z,99.90
2018-11-10T20:01:40.019Z,99.90
2018-11-10T20:03:44.093Z,99.90
2018-11-10T20:05:48.068Z,99.90
2018-11-10T20:07:52.093Z,99.90
2018-11-10T20:09:56.020Z,99.90
2018-11-10T20:12:00.038Z,99.90
2018-11-10T20:14:05.783Z,99.90
2018-11-10T20:16:10.472Z,99.90
2018-11-10T20:18:14.717Z,99.90
2018-11-10T20:20:19.342Z,99.90
2018-11-10T20:22:23.413Z,99.90
2018-11-10T20:24:28.128Z,99.90
2018-11-10T20:26:32.181Z,99.90
2018-11-10T20:28:36.339Z,99.90
2018-11-10T20:30:40.731Z,99.90
2018-11-10T20:32:45.469Z,99.90
2018-11-10T20:34:49.819Z,99.90
2018-11-10T20:36:54.357Z,99.90
2018-11-10T20:38:58.344Z,99.90
2018-11-10T20:41:02.164Z,99.90
2018-11-10T20:43:06.734Z,99.90
2018-11-10T20:45:14.078Z,99.90
2018-11-10T20:47:17.947Z,99.90
2018-11-10T20:49:21.844Z,99.90
2018-11-10T20:51:25.751Z,99.90
2018-11-10T20:53:29.846Z,99.90
2018-11-10T20:55:33.770Z,99.90
2018-11-10T20:57:38.067Z,99.90
2018-11-10T20:59:42.129Z,99.90
2018-11-10T21:01:46.559Z,99.90
2018-11-10T21:03:51.021Z,99.90
2018-11-10T21:05:55.023Z,99.90
2018-11-10T21:08:00.752Z,99.90
2018-11-10T21:10:05.351Z,99.90
2018-11-10T21:12:10.290Z,99.90
2018-11-10T21:14:14.240Z,99.90
2018-11-10T21:16:18.177Z,99.90
2018-11-10T21:18:22.173Z,99.90
2018-11-10T21:20:27.007Z,99.90
2018-11-10T21:22:30.882Z,99.90
2018-11-10T21:24:34.791Z,99.90
2018-11-10T21:26:39.778Z,99.90
2018-11-10T21:28:43.751Z,99.90
2018-11-10T21:30:48.678Z,99.90
2018-11-10T21:32:52.563Z,99.90
2018-11-10T21:34:56.738Z,99.90
2018-11-10T21:37:02.655Z,99.90
2018-11-10T21:39:11.130Z,99.90
2018-11-10T21:41:17.547Z,99.90
2018-11-10T21:43:21.323Z,99.90
2018-11-10T21:45:25.501Z,99.90
2018-11-10T21:47:29.378Z,99.90
2018-11-10T21:49:33.589Z,99.90
2018-11-10T21:51:37.176Z,99.90
2018-11-10T21:53:41.013Z,99.90
2018-11-10T21:55:44.769Z,99.90
2018-11-10T21:57:49.255Z,99.90
2018-11-10T21:59:53.019Z,99.90
2018-11-10T22:01:57.234Z,99.90
2018-11-10T22:04:01.159Z,99.90
2018-11-10T22:06:05.816Z,99.90
2018-11-10T22:08:10.589Z,99.90
2018-11-10T22:10:15.737Z,99.90
2018-11-10T22:12:19.538Z,99.90
2018-11-10T22:14:23.324Z,99.90
2018-11-10T22:16:28.374Z,99.90
2018-11-10T22:18:32.172Z,99.90
2018-11-10T22:20:37.121Z,99.90
2018-11-10T22:22:41.099Z,99.90
2018-11-10T22:24:44.825Z,99.90
2018-11-10T22:26:48.565Z,99.90
2018-11-10T22:28:52.367Z,99.90
2018-11-10T22:30:56.184Z,99.90
2018-11-10T22:32:59.959Z,99.90
2018-11-10T22:35:03.798Z,99.90
2018-11-10T22:37:07.703Z,99.90
2018-11-10T22:39:11.709Z,99.90
2018-11-10T22:41:15.463Z,99.90
2018-11-10T22:43:19.248Z,99.90
2018-11-10T22:45:23.049Z,99.90
2018-11-10T22:47:26.828Z,99.90
2018-11-10T22:49:30.622Z,99.90
2018-11-10T22:51:34.395Z,99.90
2018-11-10T22:53:38.213Z,99.90
2018-11-10T22:55:41.992Z,99.90
2018-11-10T22:57:46.138Z,99.90
2018-11-10T22:59:49.903Z,99.90
2018-11-10T23:01:53.675Z,99.90
2018-11-10T23:03:57.479Z,99.90
2018-11-10T23:06:01.257Z,99.90
2018-11-10T23:08:05.016Z,99.90
2018-11-10T23:10:09.288Z,99.90
2018-11-10T23:12:13.990Z,99.90
2018-11-10T23:14:17.851Z,99.90
2018-11-10T23:16:21.611Z,99.90
2018-11-10T23:18:25.447Z,99.90
2018-11-10T23:20:29.256Z,99.90
2018-11-10T23:22:33.044Z,99.90
2018-11-10T23:24:36.984Z,99.90
2018-11-10T23:26:40.726Z,99.90
2018-11-10T23:28:44.562Z,99.90
2018-11-10T23:30:48.270Z,99.90
2018-11-10T23:32:52.083Z,99.90
2018-11-10T23:34:55.911Z,99.90
2018-11-10T23:36:59.861Z,99.90
2018-11-10T23:39:04.310Z,99.90
2018-11-10T23:41:08.280Z,99.90
2018-11-10T23:43:12.106Z,99.90
2018-11-10T23:45:16.605Z,99.90
2018-11-10T23:47:20.421Z,99.90
2018-11-10T23:49:24.189Z,99.90
2018-11-10T23:51:28.156Z,99.90
2018-11-10T23:53:32.960Z,99.90
2018-11-10T23:55:36.795Z,99.90
2018-11-10T23:57:40.624Z,99.90
2018-11-10T23:59:44.461Z,99.90
